createdAt,value
2023-02-07T00:00:23.000Z,36.9
2023-02-07T00:01:33.688Z,36.9
2023-02-07T00:02:43.000Z,36.9
2023-02-07T00:03:53.000Z,36.9
2023-02-07T00:05:04.034Z,36.9
2023-02-07T00:06:14.000Z,36.9
2023-02-07T00:07:24.000Z,36.9
2023-02-07T00:08:34.000Z,36.9
2023-02-07T00:09:44.000Z,36.9
2023-02-07T00:10:54.000Z,36.9
2023-02-07T00:12:04.000Z,36.9
2023-02-07T00:13:14.851Z,36.9
2023-02-07T00:14:23.000Z,36.9
2023-02-07T00:15:34.000Z,36.9
2023-02-07T00:16:44.000Z,36.9
2023-02-07T00:17:54.000Z,36.9
2023-02-07T00:19:04.000Z,36.9
2023-02-07T00:20:14.556Z,36.9
2023-02-07T00:21:24.673Z,36.9
2023-02-07T00:22:34.000Z,36.9
2023-02-07T00:23:44.000Z,36.9
2023-02-07T00:24:55.000Z,36.9
2023-02-07T00:26:05.137Z,36.9
2023-02-07T00:27:15.000Z,36.9
2023-02-07T00:28:25.000Z,36.9
2023-02-07T00:29:34.000Z,36.9
2023-02-07T00:30:44.616Z,36.9
2023-02-07T00:31:54.000Z,36.9
2023-02-07T00:33:04.000Z,36.9
2023-02-07T00:34:14.000Z,36.9
2023-02-07T00:35:25.000Z,36.9
2023-02-07T00:36:35.193Z,36.9
2023-02-07T00:37:45.000Z,36.9
2023-02-07T00:38:55.000Z,36.9
2023-02-07T00:40:05.547Z,36.9
2023-02-07T00:41:15.661Z,36.9
2023-02-07T00:42:25.000Z,36.9
2023-02-07T00:43:35.890Z,36.9
2023-02-07T00:44:45.039Z,36.9
2023-02-07T00:45:55.134Z,36.9
2023-02-07T00:47:05.000Z,36.9
2023-02-07T00:48:15.367Z,36.9
2023-02-07T00:49:25.493Z,36.9
2023-02-07T00:50:35.599Z,36.9
2023-02-07T00:51:45.718Z,36.9
2023-02-07T00:52:55.000Z,36.9
2023-02-07T00:54:05.950Z,36.9
2023-02-07T00:55:16.066Z,36.9
2023-02-07T00:56:26.000Z,36.9
2023-02-07T00:57:36.000Z,36.9
2023-02-07T00:58:46.413Z,36.9
2023-02-07T00:59:55.000Z,36.9
2023-02-07T01:01:05.673Z,36.9
2023-02-07T01:02:15.780Z,36.9
2023-02-07T01:03:25.000Z,36.9
2023-02-07T01:04:36.006Z,36.9
2023-02-07T01:05:46.000Z,37
2023-02-07T01:06:56.000Z,36.9
2023-02-07T01:08:06.360Z,37
2023-02-07T01:09:16.481Z,37
2023-02-07T01:10:26.000Z,37
2023-02-07T01:11:36.704Z,37
2023-02-07T01:12:46.831Z,36.9
2023-02-07T01:13:56.000Z,36.9
2023-02-07T01:15:06.000Z,36.9
2023-02-07T01:16:16.181Z,36.9
2023-02-07T01:17:26.000Z,36.9
2023-02-07T01:18:36.000Z,36.9
2023-02-07T01:19:46.000Z,36.9
2023-02-07T01:20:56.644Z,36.9
2023-02-07T01:22:06.766Z,36.9
2023-02-07T01:23:16.878Z,36.9
2023-02-07T01:24:26.000Z,36.9
2023-02-07T01:25:37.000Z,36.9
2023-02-07T01:26:47.221Z,36.9
2023-02-07T01:27:57.000Z,36.9
2023-02-07T01:29:07.000Z,36.9
2023-02-07T01:30:16.588Z,36.9
2023-02-07T01:31:26.000Z,36.9
2023-02-07T01:32:36.000Z,36.9
2023-02-07T01:33:46.000Z,36.9
2023-02-07T01:34:57.074Z,36.9
2023-02-07T01:36:07.000Z,36.9
2023-02-07T01:37:17.000Z,36.9
2023-02-07T01:38:27.000Z,36.9
2023-02-07T01:39:37.000Z,36.9
2023-02-07T01:40:47.000Z,36.9
2023-02-07T01:41:57.000Z,36.9
2023-02-07T01:43:07.864Z,36.9
2023-02-07T01:44:17.000Z,36.9
2023-02-07T01:45:27.000Z,36.9
2023-02-07T01:46:37.223Z,36.9
2023-02-07T01:47:47.346Z,36.9
2023-02-07T01:48:57.481Z,36.9
2023-02-07T01:50:07.000Z,36.9
2023-02-07T01:51:17.000Z,36.9
2023-02-07T01:52:27.802Z,36.8
2023-02-07T01:53:37.000Z,36.8
2023-02-07T01:54:48.040Z,36.8
2023-02-07T01:55:58.000Z,36.8
2023-02-07T01:57:08.000Z,36.8
2023-02-07T01:58:18.000Z,36.8
2023-02-07T01:59:28.498Z,36.8
2023-02-07T02:00:37.000Z,36.8
2023-02-07T02:01:47.744Z,36.8
2023-02-07T02:02:57.000Z,36.8
2023-02-07T02:04:07.987Z,36.8
2023-02-07T02:05:18.092Z,36.8
2023-02-07T02:06:28.000Z,36.8
2023-02-07T02:07:38.000Z,36.8
2023-02-07T02:08:48.000Z,36.8
2023-02-07T02:09:58.566Z,36.8
2023-02-07T02:11:08.670Z,36.8
2023-02-07T02:12:18.000Z,36.8
2023-02-07T02:13:28.908Z,36.8
2023-02-07T02:14:39.000Z,36.8
2023-02-07T02:15:48.000Z,36.8
2023-02-07T02:16:58.269Z,36.8
2023-02-07T02:18:08.000Z,36.8
2023-02-07T02:19:18.000Z,36.8
2023-02-07T02:20:28.620Z,36.8
2023-02-07T02:21:38.733Z,36.7
2023-02-07T02:22:48.846Z,36.8
2023-02-07T02:23:58.000Z,36.7
2023-02-07T02:25:09.000Z,36.8
2023-02-07T02:26:19.000Z,36.7
2023-02-07T02:27:29.000Z,36.7
2023-02-07T02:28:39.000Z,36.7
2023-02-07T02:29:49.000Z,36.7
2023-02-07T02:30:58.000Z,36.7
2023-02-07T02:32:08.000Z,36.7
2023-02-07T02:33:18.000Z,36.7
2023-02-07T02:34:29.000Z,36.7
2023-02-07T02:35:39.146Z,36.7
2023-02-07T02:36:49.000Z,36.7
2023-02-07T02:37:59.000Z,36.7
2023-02-07T02:39:09.000Z,36.7
2023-02-07T02:40:19.000Z,36.7
2023-02-07T02:41:29.715Z,36.7
2023-02-07T02:42:39.000Z,36.7
2023-02-07T02:43:49.000Z,36.7
2023-02-07T02:45:00.065Z,36.7
2023-02-07T02:46:09.211Z,36.7
2023-02-07T02:47:19.315Z,36.7
2023-02-07T02:48:29.000Z,36.6
2023-02-07T02:49:39.542Z,36.7
2023-02-07T02:50:49.660Z,36.7
2023-02-07T02:51:59.000Z,36.6
2023-02-07T02:53:09.000Z,36.7
2023-02-07T02:54:20.012Z,36.6
2023-02-07T02:55:30.125Z,36.6
2023-02-07T02:56:40.000Z,36.6
2023-02-07T02:57:50.357Z,36.6
2023-02-07T02:59:00.000Z,36.6
2023-02-07T03:00:10.000Z,36.6
2023-02-07T03:01:19.000Z,36.6
2023-02-07T03:02:29.000Z,36.6
2023-02-07T03:03:39.000Z,36.6
2023-02-07T03:04:50.000Z,36.6
2023-02-07T03:06:00.000Z,36.6
2023-02-07T03:07:10.312Z,36.6
2023-02-07T03:08:19.441Z,36.6
2023-02-07T03:09:29.000Z,36.6
2023-02-07T03:10:39.672Z,36.6
2023-02-07T03:11:49.000Z,36.6
2023-02-07T03:12:59.000Z,36.6
2023-02-07T03:14:10.000Z,36.6
2023-02-07T03:15:20.136Z,36.6
2023-02-07T03:16:30.247Z,36.6
2023-02-07T03:17:40.000Z,36.6
2023-02-07T03:18:50.000Z,36.6
2023-02-07T03:20:00.000Z,36.6
2023-02-07T03:21:10.000Z,36.6
2023-02-07T03:22:20.829Z,36.5
2023-02-07T03:23:29.958Z,36.5
2023-02-07T03:24:40.077Z,36.5
2023-02-07T03:25:50.202Z,36.5
2023-02-07T03:27:00.307Z,36.5
2023-02-07T03:28:10.000Z,36.5
2023-02-07T03:29:20.000Z,36.5
2023-02-07T03:30:30.656Z,36.5
2023-02-07T03:31:40.000Z,36.5
2023-02-07T03:32:50.000Z,36.5
2023-02-07T03:34:01.000Z,36.5
2023-02-07T03:35:11.118Z,36.5
2023-02-07T03:36:21.000Z,36.5
2023-02-07T03:37:31.347Z,36.5
2023-02-07T03:38:40.000Z,36.5
2023-02-07T03:39:50.000Z,36.5
2023-02-07T03:41:00.000Z,36.5
2023-02-07T03:42:10.000Z,36.5
2023-02-07T03:43:20.000Z,36.5
2023-02-07T03:44:31.061Z,36.4
2023-02-07T03:45:41.000Z,36.4
2023-02-07T03:46:51.288Z,36.4
2023-02-07T03:48:01.414Z,36.4
2023-02-07T03:49:11.000Z,36.4
2023-02-07T03:50:21.000Z,36.4
2023-02-07T03:51:31.000Z,36.4
2023-02-07T03:52:41.873Z,36.4
2023-02-07T03:53:51.000Z,36.4
2023-02-07T03:55:01.120Z,36.4
2023-02-07T03:56:11.000Z,36.4
2023-02-07T03:57:21.000Z,36.4
2023-02-07T03:58:31.465Z,36.4
2023-02-07T03:59:41.583Z,36.4
2023-02-07T04:00:51.000Z,36.4
2023-02-07T04:02:01.000Z,36.4
2023-02-07T04:03:11.925Z,36.3
2023-02-07T04:04:22.000Z,36.4
2023-02-07T04:05:32.000Z,36.3
2023-02-07T04:06:42.000Z,36.3
2023-02-07T04:07:52.000Z,36.3
2023-02-07T04:09:01.000Z,36.3
2023-02-07T04:10:11.000Z,36.3
2023-02-07T04:11:21.000Z,36.3
2023-02-07T04:12:31.871Z,36.3
2023-02-07T04:13:41.985Z,36.3
2023-02-07T04:14:52.000Z,36.3
2023-02-07T04:16:02.224Z,36.3
2023-02-07T04:17:12.000Z,36.3
2023-02-07T04:18:22.450Z,36.3
2023-02-07T04:19:32.000Z,36.3
2023-02-07T04:20:42.691Z,36.3
2023-02-07T04:21:52.000Z,36.3
2023-02-07T04:23:02.913Z,36.3
2023-02-07T04:24:12.000Z,36.3
2023-02-07T04:25:22.000Z,36.3
2023-02-07T04:26:32.000Z,36.3
2023-02-07T04:27:42.000Z,36.3
2023-02-07T04:28:52.000Z,36.3
2023-02-07T04:30:02.000Z,36.2
2023-02-07T04:31:12.000Z,36.3
2023-02-07T04:32:22.000Z,36.2
2023-02-07T04:33:32.977Z,36.2
2023-02-07T04:34:43.000Z,36.2
2023-02-07T04:35:53.000Z,36.2
2023-02-07T04:37:03.000Z,36.2
2023-02-07T04:38:13.000Z,36.2
2023-02-07T04:39:22.000Z,36.2
2023-02-07T04:40:32.000Z,36.2
2023-02-07T04:41:42.802Z,36.2
2023-02-07T04:42:52.000Z,36.2
2023-02-07T04:44:03.027Z,36.2
2023-02-07T04:45:13.145Z,36.2
2023-02-07T04:46:23.000Z,36.2
2023-02-07T04:47:33.375Z,36.1
2023-02-07T04:48:43.491Z,36.1
2023-02-07T04:49:53.000Z,36.1
2023-02-07T04:51:03.723Z,36.1
2023-02-07T04:52:13.848Z,36.1
2023-02-07T04:53:23.962Z,36.1
2023-02-07T04:54:33.000Z,36.1
2023-02-07T04:55:43.000Z,36.1
2023-02-07T04:56:53.000Z,36.1
2023-02-07T04:58:03.000Z,36.1
2023-02-07T04:59:13.000Z,36.1
2023-02-07T05:00:23.000Z,36.1
2023-02-07T05:01:33.000Z,36.1
2023-02-07T05:02:43.904Z,36.1
2023-02-07T05:03:54.025Z,36.1
2023-02-07T05:05:04.136Z,36.1
2023-02-07T05:06:14.253Z,36.1
2023-02-07T05:07:24.366Z,36.1
2023-02-07T05:08:34.000Z,36
2023-02-07T05:09:43.608Z,36
2023-02-07T05:10:53.000Z,36
2023-02-07T05:12:03.000Z,36.1
2023-02-07T05:13:13.000Z,36
2023-02-07T05:14:24.000Z,36
2023-02-07T05:15:34.000Z,36
2023-02-07T05:16:44.000Z,36
2023-02-07T05:17:54.000Z,36
2023-02-07T05:19:04.000Z,36
2023-02-07T05:20:14.662Z,36
2023-02-07T05:21:24.773Z,36
2023-02-07T05:22:34.000Z,36
2023-02-07T05:23:45.000Z,36
2023-02-07T05:24:54.000Z,36
2023-02-07T05:26:04.251Z,36
2023-02-07T05:27:14.000Z,36
2023-02-07T05:28:24.000Z,36
2023-02-07T05:29:34.597Z,36
2023-02-07T05:30:44.724Z,36
2023-02-07T05:31:54.000Z,35.9
2023-02-07T05:33:04.000Z,35.9
2023-02-07T05:34:15.065Z,35.9
2023-02-07T05:35:25.175Z,35.9
2023-02-07T05:36:35.000Z,35.9
2023-02-07T05:37:45.412Z,35.9
2023-02-07T05:38:55.524Z,35.9
2023-02-07T05:40:04.653Z,35.9
2023-02-07T05:41:14.778Z,35.9
2023-02-07T05:42:24.000Z,35.9
2023-02-07T05:43:35.000Z,35.9
2023-02-07T05:44:45.116Z,35.9
2023-02-07T05:45:55.248Z,35.9
2023-02-07T05:47:05.350Z,35.9
2023-02-07T05:48:15.466Z,35.9
2023-02-07T05:49:25.000Z,35.9
2023-02-07T05:50:35.000Z,35.9
2023-02-07T05:51:45.000Z,35.9
2023-02-07T05:52:55.927Z,35.9
2023-02-07T05:54:06.000Z,35.8
2023-02-07T05:55:15.000Z,35.8
2023-02-07T05:56:25.000Z,35.8
2023-02-07T05:57:35.419Z,35.8
2023-02-07T05:58:45.000Z,35.8
2023-02-07T05:59:55.000Z,35.8
2023-02-07T06:01:05.000Z,35.8
2023-02-07T06:02:15.872Z,35.7
2023-02-07T06:03:25.000Z,35.6
2023-02-07T06:04:36.104Z,35.2
2023-02-07T06:05:46.000Z,35.1
2023-02-07T06:06:56.000Z,35.1
2023-02-07T06:08:06.000Z,35
2023-02-07T06:09:16.000Z,34.9
2023-02-07T06:10:25.706Z,34.8
2023-02-07T06:11:35.000Z,34.7
2023-02-07T06:12:45.000Z,34.5
2023-02-07T06:13:56.045Z,34.4
2023-02-07T06:15:06.000Z,34.5
2023-02-07T06:16:16.000Z,34.3
2023-02-07T06:17:26.000Z,34.1
2023-02-07T06:18:36.000Z,34
2023-02-07T06:19:46.627Z,33.9
2023-02-07T06:20:56.000Z,33.8
2023-02-07T06:22:06.000Z,33.7
2023-02-07T06:23:16.000Z,33.7
2023-02-07T06:24:27.000Z,33.5
2023-02-07T06:25:36.230Z,33.4
2023-02-07T06:26:46.334Z,33.3
2023-02-07T06:27:56.460Z,33.2
2023-02-07T06:29:06.575Z,33
2023-02-07T06:30:16.000Z,33
2023-02-07T06:31:26.804Z,32.8
2023-02-07T06:32:36.000Z,32.7
2023-02-07T06:33:47.032Z,32.6
2023-02-07T06:34:57.000Z,32.6
2023-02-07T06:36:07.000Z,32.5
2023-02-07T06:37:17.376Z,32.4
2023-02-07T06:38:27.503Z,32.3
2023-02-07T06:39:37.610Z,32.2
2023-02-07T06:40:46.000Z,32.1
2023-02-07T06:41:56.000Z,32.1
2023-02-07T06:43:06.993Z,32
2023-02-07T06:44:17.098Z,31.9
2023-02-07T06:45:27.000Z,31.8
2023-02-07T06:46:37.324Z,31.8
2023-02-07T06:47:47.000Z,31.8
2023-02-07T06:48:57.556Z,31.6
2023-02-07T06:50:07.676Z,31.6
2023-02-07T06:51:17.000Z,31.5
2023-02-07T06:52:27.900Z,31.4
2023-02-07T06:53:38.000Z,31.4
2023-02-07T06:54:48.000Z,31.3
2023-02-07T06:55:57.267Z,31.2
2023-02-07T06:57:07.000Z,31.1
2023-02-07T06:58:17.000Z,31.1
2023-02-07T06:59:27.000Z,31
2023-02-07T07:00:37.729Z,31
2023-02-07T07:01:47.850Z,30.9
2023-02-07T07:02:56.981Z,30.8
2023-02-07T07:04:07.000Z,30.8
2023-02-07T07:05:17.000Z,30.7
2023-02-07T07:06:27.000Z,30.6
2023-02-07T07:07:37.000Z,30.6
2023-02-07T07:08:47.558Z,30.6
2023-02-07T07:09:57.679Z,30.5
2023-02-07T07:11:07.000Z,30.4
2023-02-07T07:12:17.907Z,30.3
2023-02-07T07:13:28.000Z,30.3
2023-02-07T07:14:38.000Z,30.2
2023-02-07T07:15:48.256Z,30.2
2023-02-07T07:16:58.372Z,30.2
2023-02-07T07:18:07.503Z,30.1
2023-02-07T07:19:17.000Z,30.1
2023-02-07T07:20:27.741Z,29.9
2023-02-07T07:21:37.000Z,29.9
2023-02-07T07:22:47.000Z,29.9
2023-02-07T07:23:58.081Z,29.9
2023-02-07T07:25:08.000Z,29.7
2023-02-07T07:26:18.000Z,29.7
2023-02-07T07:27:28.433Z,29.6
2023-02-07T07:28:38.000Z,29.7
2023-02-07T07:29:48.000Z,29.5
2023-02-07T07:30:58.787Z,29.5
2023-02-07T07:32:08.000Z,29.4
2023-02-07T07:33:18.000Z,29.3
2023-02-07T07:34:28.000Z,29.3
2023-02-07T07:35:38.275Z,29.3
2023-02-07T07:36:48.375Z,29.2
2023-02-07T07:37:58.000Z,29.2
2023-02-07T07:39:08.000Z,29.2
2023-02-07T07:40:18.000Z,29.1
2023-02-07T07:41:28.840Z,29
2023-02-07T07:42:38.000Z,29.1
2023-02-07T07:43:49.000Z,29
2023-02-07T07:44:59.000Z,29
2023-02-07T07:46:09.306Z,28.9
2023-02-07T07:47:19.000Z,28.9
2023-02-07T07:48:28.000Z,28.8
2023-02-07T07:49:38.000Z,28.7
2023-02-07T07:50:48.000Z,28.7
2023-02-07T07:51:58.896Z,28.7
2023-02-07T07:53:09.000Z,28.7
2023-02-07T07:54:19.131Z,28.7
2023-02-07T07:55:29.000Z,28.6
2023-02-07T07:56:39.360Z,28.5
2023-02-07T07:57:49.000Z,28.5
2023-02-07T07:58:59.591Z,28.5
2023-02-07T08:00:09.000Z,28.5
2023-02-07T08:01:19.000Z,28.4
2023-02-07T08:02:29.947Z,28.4
2023-02-07T08:03:39.000Z,28.4
2023-02-07T08:04:49.000Z,28.3
2023-02-07T08:05:59.309Z,28.4
2023-02-07T08:07:09.000Z,28.3
2023-02-07T08:08:19.000Z,28.2
2023-02-07T08:09:29.000Z,28.2
2023-02-07T08:10:39.775Z,28.2
2023-02-07T08:11:49.000Z,28.2
2023-02-07T08:13:00.000Z,28.1
2023-02-07T08:14:10.000Z,28.1
2023-02-07T08:15:20.000Z,28.1
2023-02-07T08:16:30.346Z,28
2023-02-07T08:17:40.000Z,28
2023-02-07T08:18:49.000Z,28
2023-02-07T08:19:59.000Z,28
2023-02-07T08:21:09.825Z,28
2023-02-07T08:22:19.943Z,27.9
2023-02-07T08:23:30.063Z,28
2023-02-07T08:24:40.000Z,27.9
2023-02-07T08:25:50.293Z,27.9
2023-02-07T08:27:00.412Z,27.8
2023-02-07T08:28:10.000Z,27.8
2023-02-07T08:29:20.000Z,27.8
2023-02-07T08:30:30.000Z,27.8
2023-02-07T08:31:40.872Z,27.8
2023-02-07T08:32:50.000Z,27.8
2023-02-07T08:34:00.119Z,27.7
2023-02-07T08:35:10.000Z,27.7
2023-02-07T08:36:20.000Z,27.7
2023-02-07T08:37:30.000Z,27.7
2023-02-07T08:38:40.000Z,27.7
2023-02-07T08:39:50.000Z,27.7
2023-02-07T08:41:00.000Z,27.6
2023-02-07T08:42:10.000Z,27.6
2023-02-07T08:43:21.000Z,27.6
2023-02-07T08:44:31.166Z,27.5
2023-02-07T08:45:41.281Z,27.5
2023-02-07T08:46:51.000Z,27.5
2023-02-07T08:48:01.000Z,27.5
2023-02-07T08:49:10.000Z,27.4
2023-02-07T08:50:20.756Z,27.4
2023-02-07T08:51:30.000Z,27.4
2023-02-07T08:52:40.989Z,27.3
2023-02-07T08:53:51.112Z,27.3
2023-02-07T08:55:01.225Z,27.3
2023-02-07T08:56:11.000Z,27.4
2023-02-07T08:57:21.453Z,27.3
2023-02-07T08:58:31.000Z,27.3
2023-02-07T08:59:41.000Z,27.3
2023-02-07T09:00:51.804Z,27.3
2023-02-07T09:02:01.000Z,27.2
2023-02-07T09:03:12.000Z,27.2
2023-02-07T09:04:21.000Z,27.2
2023-02-07T09:05:31.286Z,27.2
2023-02-07T09:06:41.405Z,27.2
2023-02-07T09:07:51.000Z,27.2
2023-02-07T09:09:01.000Z,27.1
2023-02-07T09:10:11.000Z,27.1
2023-02-07T09:11:21.000Z,27.1
2023-02-07T09:12:31.984Z,27.1
2023-02-07T09:13:42.092Z,27.1
2023-02-07T09:14:52.218Z,26.9
2023-02-07T09:16:02.329Z,26.9
2023-02-07T09:17:12.000Z,26.9
2023-02-07T09:18:22.000Z,26.9
2023-02-07T09:19:31.000Z,26.9
2023-02-07T09:20:41.807Z,26.9
2023-02-07T09:21:51.000Z,26.9
2023-02-07T09:23:02.000Z,26.9
2023-02-07T09:24:12.159Z,26.9
2023-02-07T09:25:22.278Z,26.9
2023-02-07T09:26:32.000Z,26.9
2023-02-07T09:27:42.504Z,26.9
2023-02-07T09:28:52.626Z,26.8
2023-02-07T09:30:02.000Z,26.7
2023-02-07T09:31:12.000Z,26.8
2023-02-07T09:32:22.000Z,26.7
2023-02-07T09:33:33.000Z,26.7
2023-02-07T09:34:42.217Z,26.7
2023-02-07T09:35:52.334Z,26.7
2023-02-07T09:37:02.448Z,27
2023-02-07T09:38:12.000Z,27.4
2023-02-07T09:39:22.691Z,27.9
2023-02-07T09:40:32.000Z,27.9
2023-02-07T09:41:42.000Z,27.7
2023-02-07T09:42:53.000Z,27.7
2023-02-07T09:44:03.150Z,27.6
2023-02-07T09:45:13.000Z,27.6
2023-02-07T09:46:23.000Z,27.6
2023-02-07T09:47:33.000Z,27.6
2023-02-07T09:48:43.000Z,27.6
2023-02-07T09:49:52.000Z,27.6
2023-02-07T09:51:02.000Z,27.5
2023-02-07T09:52:12.000Z,27.5
2023-02-07T09:53:23.000Z,27.4
2023-02-07T09:54:33.205Z,27.5
2023-02-07T09:55:43.332Z,27.4
2023-02-07T09:56:53.439Z,27.4
2023-02-07T09:58:03.000Z,27.3
2023-02-07T09:59:13.000Z,27.3
2023-02-07T10:00:23.000Z,27.3
2023-02-07T10:01:33.000Z,27.2
2023-02-07T10:02:44.000Z,27.2
2023-02-07T10:03:54.000Z,27.2
2023-02-07T10:05:03.000Z,27.1
2023-02-07T10:06:13.394Z,27.1
2023-02-07T10:07:23.508Z,27.1
2023-02-07T10:08:33.000Z,27.1
2023-02-07T10:09:43.731Z,27.1
2023-02-07T10:10:53.000Z,27
2023-02-07T10:12:03.000Z,27
2023-02-07T10:13:14.079Z,27
2023-02-07T10:14:24.000Z,26.9
2023-02-07T10:15:34.000Z,26.9
2023-02-07T10:16:44.000Z,26.9
2023-02-07T10:17:54.000Z,26.8
2023-02-07T10:19:04.000Z,26.8
2023-02-07T10:20:13.000Z,26.8
2023-02-07T10:21:23.000Z,26.8
2023-02-07T10:22:34.000Z,26.9
2023-02-07T10:23:44.000Z,26.8
2023-02-07T10:24:54.256Z,26.7
2023-02-07T10:26:04.000Z,26.8
2023-02-07T10:27:14.489Z,26.7
2023-02-07T10:28:24.610Z,26.7
2023-02-07T10:29:34.722Z,26.6
2023-02-07T10:30:44.000Z,26.6
2023-02-07T10:31:54.000Z,26.6
2023-02-07T10:33:05.000Z,26.6
2023-02-07T10:34:15.000Z,26.5
2023-02-07T10:35:24.000Z,26.5
2023-02-07T10:36:34.000Z,26.5
2023-02-07T10:37:44.000Z,26.5
2023-02-07T10:38:54.000Z,26.5
2023-02-07T10:40:04.785Z,26.4
2023-02-07T10:41:14.896Z,26.4
2023-02-07T10:42:25.000Z,26.4
2023-02-07T10:43:35.000Z,26.4
2023-02-07T10:44:45.000Z,26.4
2023-02-07T10:45:55.000Z,26.4
2023-02-07T10:47:05.481Z,26.4
2023-02-07T10:48:15.595Z,26.4
2023-02-07T10:49:25.000Z,26.3
2023-02-07T10:50:34.851Z,26.3
2023-02-07T10:51:44.966Z,26.3
2023-02-07T10:52:55.000Z,26.3
2023-02-07T10:54:05.000Z,26.3
2023-02-07T10:55:15.309Z,26.3
2023-02-07T10:56:25.000Z,26.2
2023-02-07T10:57:34.000Z,26.1
2023-02-07T10:58:44.674Z,26.2
2023-02-07T10:59:54.789Z,26.1
2023-02-07T11:01:04.000Z,26.1
2023-02-07T11:02:15.024Z,26.1
2023-02-07T11:03:25.000Z,26
2023-02-07T11:04:35.260Z,26.1
2023-02-07T11:05:45.000Z,26
2023-02-07T11:06:55.488Z,26
2023-02-07T11:08:05.607Z,26
2023-02-07T11:09:15.000Z,25.9
2023-02-07T11:10:25.834Z,25.9
2023-02-07T11:11:35.000Z,26
2023-02-07T11:12:45.000Z,26
2023-02-07T11:13:55.000Z,25.9
2023-02-07T11:15:05.313Z,25.9
2023-02-07T11:16:15.000Z,25.9
2023-02-07T11:17:25.000Z,25.8
2023-02-07T11:18:35.000Z,25.9
2023-02-07T11:19:45.000Z,25.9
2023-02-07T11:20:55.000Z,25.8
2023-02-07T11:22:06.011Z,25.7
2023-02-07T11:23:16.125Z,25.7
2023-02-07T11:24:26.000Z,25.7
2023-02-07T11:25:36.000Z,25.7
2023-02-07T11:26:46.000Z,25.6
2023-02-07T11:27:55.601Z,25.6
2023-02-07T11:29:05.000Z,25.7
2023-02-07T11:30:15.000Z,25.6
2023-02-07T11:31:25.000Z,25.6
2023-02-07T11:32:36.000Z,25.6
2023-02-07T11:33:46.000Z,25.5
2023-02-07T11:34:56.000Z,25.5
2023-02-07T11:36:06.000Z,25.4
2023-02-07T11:37:16.000Z,25.4
2023-02-07T11:38:26.000Z,25.4
2023-02-07T11:39:36.764Z,25.3
2023-02-07T11:40:46.880Z,25.3
2023-02-07T11:41:56.000Z,25.2
2023-02-07T11:43:06.000Z,25.2
2023-02-07T11:44:16.000Z,25.1
2023-02-07T11:45:26.000Z,25
2023-02-07T11:46:36.000Z,25.1
2023-02-07T11:47:46.588Z,25
2023-02-07T11:48:56.000Z,25
2023-02-07T11:50:06.822Z,25.1
2023-02-07T11:51:16.000Z,24.9
2023-02-07T11:52:27.054Z,24.9
2023-02-07T11:53:37.000Z,24.9
2023-02-07T11:54:47.283Z,24.8
2023-02-07T11:55:57.000Z,24.8
2023-02-07T11:57:07.519Z,24.8
2023-02-07T11:58:16.660Z,24.9
2023-02-07T11:59:26.767Z,24.8
2023-02-07T12:00:36.000Z,24.8
2023-02-07T12:01:46.991Z,24.8
2023-02-07T12:02:57.107Z,24.9
2023-02-07T12:04:07.000Z,24.9
2023-02-07T12:05:17.340Z,24.9
2023-02-07T12:06:27.000Z,24.9
2023-02-07T12:07:37.578Z,24.9
2023-02-07T12:08:47.686Z,24.9
2023-02-07T12:09:57.000Z,25
2023-02-07T12:11:07.000Z,25
2023-02-07T12:12:18.000Z,25
2023-02-07T12:13:27.000Z,25
2023-02-07T12:14:37.000Z,25
2023-02-07T12:15:47.400Z,25
2023-02-07T12:16:57.515Z,25.1
2023-02-07T12:18:07.000Z,25.1
2023-02-07T12:19:17.000Z,25.1
2023-02-07T12:20:27.000Z,25.1
2023-02-07T12:21:37.000Z,25.1
2023-02-07T12:22:48.099Z,25.1
2023-02-07T12:23:58.000Z,25
2023-02-07T12:25:08.326Z,25
2023-02-07T12:26:18.443Z,25.1
2023-02-07T12:27:28.559Z,25.1
2023-02-07T12:28:37.695Z,25.1
2023-02-07T12:29:47.810Z,25.1
2023-02-07T12:30:57.919Z,25.1
2023-02-07T12:32:08.000Z,25
2023-02-07T12:33:18.000Z,25
2023-02-07T12:34:28.284Z,25.1
2023-02-07T12:35:38.000Z,25.1
2023-02-07T12:36:48.000Z,25
2023-02-07T12:37:58.000Z,25
2023-02-07T12:39:08.000Z,24.9
2023-02-07T12:40:18.846Z,24.8
2023-02-07T12:41:28.000Z,24.7
2023-02-07T12:42:39.000Z,24.7
2023-02-07T12:43:48.000Z,24.7
2023-02-07T12:44:58.330Z,24.6
2023-02-07T12:46:08.441Z,24.6
2023-02-07T12:47:18.000Z,24.6
2023-02-07T12:48:28.674Z,24.6
2023-02-07T12:49:38.000Z,24.5
2023-02-07T12:50:48.908Z,24.7
2023-02-07T12:51:59.021Z,24.4
2023-02-07T12:53:09.136Z,24.5
2023-02-07T12:54:19.000Z,24.4
2023-02-07T12:55:29.000Z,24.4
2023-02-07T12:56:39.000Z,24.4
2023-02-07T12:57:49.000Z,24.4
2023-02-07T12:58:58.000Z,24.4
2023-02-07T13:00:08.000Z,24.4
2023-02-07T13:01:18.969Z,24.3
2023-02-07T13:02:29.089Z,24.3
2023-02-07T13:03:39.212Z,24.3
2023-02-07T13:04:49.313Z,24.3
2023-02-07T13:05:59.000Z,24.3
2023-02-07T13:07:09.000Z,24.3
2023-02-07T13:08:19.661Z,24.3
2023-02-07T13:09:29.000Z,24.3
2023-02-07T13:10:39.000Z,24.3
2023-02-07T13:11:50.005Z,24.2
2023-02-07T13:13:00.125Z,24.2
2023-02-07T13:14:09.000Z,24.2
2023-02-07T13:15:19.000Z,24
2023-02-07T13:16:29.503Z,24.1
2023-02-07T13:17:39.602Z,24.1
2023-02-07T13:18:49.718Z,24.1
2023-02-07T13:19:59.000Z,24
2023-02-07T13:21:09.952Z,24
2023-02-07T13:22:20.000Z,24
2023-02-07T13:23:30.182Z,24
2023-02-07T13:24:40.000Z,24
2023-02-07T13:25:50.000Z,24
2023-02-07T13:27:00.000Z,24
2023-02-07T13:28:10.000Z,24
2023-02-07T13:29:19.782Z,24.1
2023-02-07T13:30:29.000Z,24
2023-02-07T13:31:40.000Z,23.9
2023-02-07T13:32:50.130Z,23.9
2023-02-07T13:34:00.000Z,23.9
2023-02-07T13:35:10.000Z,23.9
2023-02-07T13:36:20.479Z,23.9
2023-02-07T13:37:30.000Z,23.9
2023-02-07T13:38:40.000Z,24
2023-02-07T13:39:50.000Z,23.9
2023-02-07T13:41:00.940Z,23.8
2023-02-07T13:42:11.000Z,23.8
2023-02-07T13:43:21.000Z,23.8
2023-02-07T13:44:30.302Z,23.8
2023-02-07T13:45:40.000Z,23.8
2023-02-07T13:46:50.000Z,23.8
2023-02-07T13:48:00.648Z,23.7
2023-02-07T13:49:10.000Z,23.8
2023-02-07T13:50:20.000Z,23.7
2023-02-07T13:51:31.000Z,23.7
2023-02-07T13:52:41.000Z,23.8
2023-02-07T13:53:51.000Z,23.7
2023-02-07T13:55:01.347Z,23.8
2023-02-07T13:56:11.000Z,23.7
2023-02-07T13:57:21.000Z,23.6
2023-02-07T13:58:31.701Z,23.6
2023-02-07T13:59:40.000Z,23.7
2023-02-07T14:00:50.000Z,23.7
2023-02-07T14:02:01.000Z,23.7
2023-02-07T14:03:11.000Z,23.8
2023-02-07T14:04:21.000Z,23.7
2023-02-07T14:05:31.000Z,23.7
2023-02-07T14:06:41.520Z,23.7
2023-02-07T14:07:51.645Z,23.7
2023-02-07T14:09:01.000Z,23.8
2023-02-07T14:10:11.000Z,23.8
2023-02-07T14:11:21.000Z,23.6
2023-02-07T14:12:32.114Z,23.6
2023-02-07T14:13:42.000Z,23.6
2023-02-07T14:14:51.350Z,23.7
2023-02-07T14:16:01.474Z,23.8
2023-02-07T14:17:11.000Z,23.9
2023-02-07T14:18:21.000Z,23.7
2023-02-07T14:19:31.000Z,23.8
2023-02-07T14:20:41.000Z,23.8
2023-02-07T14:21:52.057Z,24
2023-02-07T14:23:02.000Z,24
2023-02-07T14:24:12.000Z,24.5
2023-02-07T14:25:22.000Z,24.5
2023-02-07T14:26:32.510Z,24.4
2023-02-07T14:27:42.629Z,24.4
2023-02-07T14:28:52.000Z,24.5
2023-02-07T14:30:01.000Z,24.3
2023-02-07T14:31:11.000Z,24.3
2023-02-07T14:32:22.000Z,24.2
2023-02-07T14:33:32.225Z,24.2
2023-02-07T14:34:42.339Z,24.1
2023-02-07T14:35:52.000Z,24.1
2023-02-07T14:37:02.000Z,24.1
2023-02-07T14:38:12.689Z,23.9
2023-02-07T14:39:22.000Z,23.9
2023-02-07T14:40:32.000Z,23.9
2023-02-07T14:41:43.000Z,23.9
2023-02-07T14:42:53.153Z,23.8
2023-02-07T14:44:03.000Z,23.8
2023-02-07T14:45:12.399Z,23.7
2023-02-07T14:46:22.000Z,23.7
2023-02-07T14:47:32.630Z,23.6
2023-02-07T14:48:42.000Z,23.5
2023-02-07T14:49:52.865Z,23.5
2023-02-07T14:51:02.000Z,23.5
2023-02-07T14:52:12.118Z,23.4
2023-02-07T14:53:22.000Z,23.4
2023-02-07T14:54:32.345Z,23.4
2023-02-07T14:55:42.000Z,23.4
2023-02-07T14:56:52.582Z,23.3
2023-02-07T14:58:02.000Z,23.3
2023-02-07T14:59:12.811Z,23.3
2023-02-07T15:00:22.927Z,23.2
2023-02-07T15:01:33.000Z,23.2
2023-02-07T15:02:43.169Z,23.2
2023-02-07T15:03:53.000Z,23.2
2023-02-07T15:05:03.000Z,23.1
2023-02-07T15:06:13.511Z,23.1
2023-02-07T15:07:22.649Z,23.1
2023-02-07T15:08:32.766Z,23.1
2023-02-07T15:09:42.872Z,23.1
2023-02-07T15:10:52.000Z,23.1
2023-02-07T15:13:13.000Z,23
2023-02-07T15:14:23.340Z,23
2023-02-07T15:15:33.456Z,23
2023-02-07T15:16:43.567Z,23
2023-02-07T15:17:53.000Z,23
2023-02-07T15:19:03.000Z,23
2023-02-07T15:20:13.916Z,23
2023-02-07T15:21:24.000Z,23
2023-02-07T15:22:33.162Z,22.9
2023-02-07T15:23:43.284Z,22.9
2023-02-07T15:24:53.000Z,22.9
2023-02-07T15:26:03.510Z,22.9
2023-02-07T15:27:13.637Z,22.9
2023-02-07T15:28:23.000Z,23
2023-02-07T15:29:33.000Z,23
2023-02-07T15:30:43.000Z,22.9
2023-02-07T15:31:54.095Z,22.9
2023-02-07T15:33:04.000Z,22.9
2023-02-07T15:34:14.322Z,22.9
2023-02-07T15:35:24.000Z,22.9
2023-02-07T15:36:34.565Z,22.9
2023-02-07T15:37:43.000Z,22.9
2023-02-07T15:38:53.811Z,22.9
2023-02-07T15:40:03.000Z,22.9